Time,TemperatureF,DewpointF,PressureIn,WindDirection,WindDirectionDegrees,WindSpeedMPH,WindSpeedGustMPH,Humidity,HourlyPrecipIn,Conditions,Clouds,dailyrainin,SolarRadiationWatts/m^2,SoftwareType,DateUTC
2013-05-17 00:01:00,42.8,38.3,29.80,NW,321,2.0,2.0,84,0.00,OVC,FEW,0.00,0.0,WeatherDisplay:10.37,2013-05-17 04:01:00,
2013-05-17 00:02:00,42.8,38.6,29.80,NNW,327,4.0,4.0,85,0.00,OVC,FEW,0.00,0.0,WeatherDisplay:10.37,2013-05-17 04:02:00,
2013-05-17 00:03:00,42.7,38.5,29.80,WSW,248,4.0,4.0,85,0.00,OVC,FEW,0.00,0.0,WeatherDisplay:10.37,2013-05-17 04:03:00,
2013-05-17 00:08:00,42.7,38.5,29.80,WSW,248,1.2,1.2,85,0.00,OVC,FEW,0.00,0.0,WeatherDisplay:10.37,2013-05-17 04:08:00,
2013-05-17 00:13:00,42.6,38.4,29.80,West,262,1.2,1.2,85,0.00,OVC,FEW,0.00,0.0,WeatherDisplay:10.37,2013-05-17 04:13:00,
2013-05-17 00:18:00,42.6,39.0,29.80,West,271,0.0,0.0,87,0.00,OVC,FEW,0.00,0.0,WeatherDisplay:10.37,2013-05-17 04:18:00,
2013-05-17 00:23:00,42.4,38.8,29.80,West,261,1.2,1.2,87,0.00,OVC,FEW,0.00,0.0,WeatherDisplay:10.37,2013-05-17 04:23:00,
2013-05-17 00:28:00,42.3,39.0,29.80,NNW,348,1.2,1.2,88,0.00,OVC,FEW,0.00,0.0,WeatherDisplay:10.37,2013-05-17 04:28:00,
2013-05-17 00:33:00,42.2,38.9,29.80,NNW,348,0.0,0.0,88,0.00,OVC,FEW,0.00,0.0,WeatherDisplay:10.37,2013-05-17 04:33:00,
2013-05-17 00:38:00,41.9,38.9,29.80,WNW,292,3.5,0.0,89,0.00,OVC,FEW,0.00,0.0,WeatherDisplay:10.37,2013-05-17 04:38:00,
2013-05-17 00:43:00,41.8,39.1,29.80,WSW,255,2.3,0.0,90,0.00,OVC,FEW,0.00,0.0,WeatherDisplay:10.37,2013-05-17 04:43:00,
2013-05-17 00:48:00,41.7,39.0,29.80,SSW,212,1.2,0.0,90,0.00,OVC,FEW,0.00,0.0,WeatherDisplay:10.37,2013-05-17 04:48:00,
2013-05-17 00:53:00,41.5,38.8,29.81,SSW,207,0.0,0.0,90,0.00,OVC,FEW,0.00,0.0,WeatherDisplay:10.37,2013-05-17 04:53:00,
2013-05-17 00:58:00,41.4,39.0,29.81,West,261,0.0,0.0,91,0.00,OVC,FEW,0.00,0.0,WeatherDisplay:10.37,2013-05-17 04:58:00,
2013-05-17 01:03:00,41.4,39.0,29.81,NW,321,2.3,2.3,91,0.00,BKN,FEW,0.00,0.0,WeatherDisplay:10.37,2013-05-17 05:03:00,
2013-05-17 01:08:00,41.3,38.9,29.81,WSW,239,1.0,0.0,91,0.00,BKN,FEW,0.00,0.0,WeatherDisplay:10.37,2013-05-17 05:08:00,
2013-05-17 01:13:00,41.2,38.8,29.81,WSW,242,1.0,1.0,91,0.00,BKN,FEW,0.00,0.0,WeatherDisplay:10.37,2013-05-17 05:13:00,
2013-05-17 01:18:00,41.2,38.8,29.81,WSW,255,1.2,1.2,91,0.00,BKN,FEW,0.00,0.0,WeatherDisplay:10.37,2013-05-17 05:18:00,
2013-05-17 01:23:00,41.2,38.8,29.81,SSW,200,1.0,0.0,91,0.00,BKN,FEW,0.00,0.0,WeatherDisplay:10.37,2013-05-17 05:23:00,
2013-05-17 01:28:00,41.1,38.7,29.81,North,9,0.0,0.0,91,0.00,BKN,FEW,0.00,0.0,WeatherDisplay:10.37,2013-05-17 05:28:00,
2013-05-17 01:33:00,41.0,38.6,29.81,West,264,3.5,3.5,91,0.00,BKN,FEW,0.00,0.0,WeatherDisplay:10.37,2013-05-17 05:33:00,
2013-05-17 01:38:00,41.0,38.6,29.81,NNW,328,1.2,1.2,91,0.00,BKN,FEW,0.00,0.0,WeatherDisplay:10.37,2013-05-17 05:38:00,
2013-05-17 01:43:00,41.0,38.6,29.81,SSE,165,3.5,3.5,91,0.00,BKN,FEW,0.00,0.0,WeatherDisplay:10.37,2013-05-17 05:43:00,
2013-05-17 01:48:00,40.9,38.5,29.81,SW,225,2.3,0.0,91,0.00,BKN,FEW,0.00,0.0,WeatherDisplay:10.37,2013-05-17 05:48:00,
2013-05-17 01:53:00,40.8,38.4,29.81,ESE,116,4.0,4.0,91,0.00,BKN,FEW,0.00,0.0,WeatherDisplay:10.37,2013-05-17 05:53:00,
2013-05-17 01:58:00,40.7,38.6,29.81,WSW,243,3.5,3.5,92,0.00,BKN,FEW,0.00,0.0,WeatherDisplay:10.37,2013-05-17 05:58:00,
2013-05-17 02:03:00,40.6,38.5,29.81,NNE,17,2.3,2.3,92,0.00,OVC,FEW,0.00,0.0,WeatherDisplay:10.37,2013-05-17 06:03:00,
2013-05-17 02:08:00,40.5,38.4,29.81,SSE,157,3.5,3.5,92,0.00,OVC,FEW,0.00,0.0,WeatherDisplay:10.37,2013-05-17 06:08:00,
2013-05-17 02:13:00,40.4,38.5,29.81,South,175,1.2,1.2,93,0.00,OVC,FEW,0.00,0.0,WeatherDisplay:10.37,2013-05-17 06:13:00,
2013-05-17 02:18:00,40.3,38.4,29.81,South,190,2.3,2.3,93,0.00,OVC,FEW,0.00,0.0,WeatherDisplay:10.37,2013-05-17 06:18:00,
2013-05-17 02:23:00,40.1,38.2,29.81,NNE,26,1.0,0.0,93,0.00,OVC,FEW,0.00,0.0,WeatherDisplay:10.37,2013-05-17 06:23:00,
2013-05-17 02:28:00,40.1,38.5,29.81,NE,44,3.5,0.0,94,0.00,OVC,FEW,0.00,0.0,WeatherDisplay:10.37,2013-05-17 06:28:00,
2013-05-17 02:33:00,40.0,38.4,29.82,SW,234,2.0,2.0,94,0.00,OVC,FEW,0.00,0.0,WeatherDisplay:10.37,2013-05-17 06:33:00,
2013-05-17 02:38:00,39.9,38.3,29.82,WSW,247,2.3,2.3,94,0.00,OVC,FEW,0.00,0.0,WeatherDisplay:10.37,2013-05-17 06:38:00,
2013-05-17 02:43:00,39.8,38.2,29.82,WSW,250,1.2,1.2,94,0.00,OVC,FEW,0.00,0.0,WeatherDisplay:10.37,2013-05-17 06:43:00,
2013-05-17 02:48:00,39.8,38.5,29.82,SSW,192,2.3,2.3,95,0.00,OVC,FEW,0.00,0.0,WeatherDisplay:10.37,2013-05-17 06:48:00,
2013-05-17 02:53:00,39.7,38.4,29.82,WNW,297,2.3,2.3,95,0.00,OVC,FEW,0.00,0.0,WeatherDisplay:10.37,2013-05-17 06:53:00,
2013-05-17 02:58:00,39.7,38.4,29.82,WNW,291,0.0,0.0,95,0.00,OVC,FEW,0.00,0.0,WeatherDisplay:10.37,2013-05-17 06:58:00,
2013-05-17 03:03:00,39.7,38.4,29.83,West,265,3.5,3.5,95,0.00,OVC,FEW,0.00,0.0,WeatherDisplay:10.37,2013-05-17 07:03:00,
2013-05-17 03:08:00,39.7,38.4,29.83,WNW,288,2.3,2.3,95,0.00,OVC,FEW,0.00,0.0,WeatherDisplay:10.37,2013-05-17 07:08:00,
2013-05-17 03:13:00,39.7,38.4,29.83,WNW,282,1.2,1.2,95,0.00,OVC,FEW,0.00,0.0,WeatherDisplay:10.37,2013-05-17 07:13:00,
2013-05-17 03:18:00,39.6,38.3,29.83,WSW,258,2.0,2.0,95,0.00,OVC,FEW,0.00,0.0,WeatherDisplay:10.37,2013-05-17 07:18:00,
2013-05-17 03:23:00,39.6,38.3,29.83,South,184,2.0,2.0,95,0.00,OVC,FEW,0.00,0.0,WeatherDisplay:10.37,2013-05-17 07:23:00,
2013-05-17 03:28:00,39.5,38.5,29.83,South,186,1.2,1.2,96,0.01,RA,FEW,0.01,0.0,WeatherDisplay:10.37,2013-05-17 07:28:00,
2013-05-17 03:33:00,39.4,38.1,29.83,South,186,3.5,3.5,95,0.01,RA,FEW,0.01,0.0,WeatherDisplay:10.37,2013-05-17 07:33:00,
2013-05-17 03:38:00,39.4,38.1,29.83,SE,134,3.5,3.5,95,0.01,OVC,FEW,0.01,0.0,WeatherDisplay:10.37,2013-05-17 07:38:00,
2013-05-17 03:43:00,39.4,38.4,29.84,WSW,252,2.3,2.3,96,0.01,OVC,FEW,0.01,0.0,WeatherDisplay:10.37,2013-05-17 07:43:00,
2013-05-17 03:48:00,39.4,38.4,29.84,NNE,21,2.3,2.3,96,0.01,OVC,FEW,0.01,0.0,WeatherDisplay:10.37,2013-05-17 07:48:00,
2013-05-17 03:53:00,39.4,38.4,29.84,West,270,0.0,0.0,96,0.01,OVC,FEW,0.01,0.0,WeatherDisplay:10.37,2013-05-17 07:53:00,
2013-05-17 03:58:00,39.4,38.4,29.84,West,269,0.0,0.0,96,0.01,OVC,FEW,0.01,0.0,WeatherDisplay:10.37,2013-05-17 07:58:00,
2013-05-17 04:03:00,39.5,38.5,29.84,WSW,250,0.0,0.0,96,0.01,OVC,FEW,0.01,0.0,WeatherDisplay:10.37,2013-05-17 08:03:00,
2013-05-17 04:08:00,39.4,38.4,29.84,NE,46,1.2,1.2,96,0.01,OVC,FEW,0.01,0.0,WeatherDisplay:10.37,2013-05-17 08:08:00,
2013-05-17 04:13:00,39.5,38.5,29.84,ENE,57,1.2,1.2,96,0.01,OVC,FEW,0.01,0.0,WeatherDisplay:10.37,2013-05-17 08:13:00,
2013-05-17 04:18:00,39.4,38.4,29.84,East,95,3.5,3.5,96,0.01,OVC,FEW,0.01,0.0,WeatherDisplay:10.37,2013-05-17 08:18:00,
2013-05-17 04:23:00,39.4,38.4,29.84,ESE,121,2.0,2.0,96,0.01,OVC,FEW,0.01,0.0,WeatherDisplay:10.37,2013-05-17 08:23:00,
2013-05-17 04:28:00,39.4,38.4,29.85,SW,222,3.5,3.5,96,0.00,OVC,FEW,0.01,0.0,WeatherDisplay:10.37,2013-05-17 08:28:00,
2013-05-17 04:33:00,39.4,38.4,29.85,SW,223,1.0,1.0,96,0.00,OVC,FEW,0.01,0.0,WeatherDisplay:10.37,2013-05-17 08:33:00,
2013-05-17 04:39:00,39.4,38.4,29.86,WSW,240,1.2,0.0,96,0.00,OVC,FEW,0.01,0.0,WeatherDisplay:10.37,2013-05-17 08:39:00,
2013-05-17 04:44:00,39.3,38.3,29.86,NE,38,4.0,4.0,96,0.00,OVC,FEW,0.01,0.0,WeatherDisplay:10.37,2013-05-17 08:44:00,
2013-05-17 04:49:00,39.3,38.3,29.86,NE,55,1.2,0.0,96,0.00,OVC,FEW,0.01,0.0,WeatherDisplay:10.37,2013-05-17 08:49:00,
2013-05-17 04:54:00,39.3,38.3,29.86,SSW,202,2.3,2.3,96,0.00,OVC,FEW,0.01,0.0,WeatherDisplay:10.37,2013-05-17 08:54:00,
2013-05-17 04:59:00,39.3,38.3,29.87,NNE,19,3.5,3.5,96,0.00,OVC,FEW,0.01,0.0,WeatherDisplay:10.37,2013-05-17 08:59:00,
2013-05-17 05:04:00,39.4,38.4,29.87,East,90,1.2,1.2,96,0.00,OVC,FEW,0.01,0.0,WeatherDisplay:10.37,2013-05-17 09:04:00,
2013-05-17 05:09:00,39.4,38.4,29.87,SE,137,2.3,2.3,96,0.00,OVC,FEW,0.01,0.0,WeatherDisplay:10.37,2013-05-17 09:09:00,
2013-05-17 05:14:00,39.4,38.4,29.88,South,184,0.0,0.0,96,0.00,OVC,FEW,0.01,0.0,WeatherDisplay:10.37,2013-05-17 09:14:00,
2013-05-17 05:19:00,39.4,38.4,29.88,WSW,253,1.2,1.2,96,0.00,OVC,FEW,0.01,0.0,WeatherDisplay:10.37,2013-05-17 09:19:00,
2013-05-17 05:24:00,39.4,38.4,29.88,SSE,150,3.5,3.5,96,0.00,OVC,FEW,0.01,0.0,WeatherDisplay:10.37,2013-05-17 09:24:00,
2013-05-17 05:29:00,39.4,38.4,29.88,West,278,3.5,3.5,96,0.00,OVC,FEW,0.01,0.0,WeatherDisplay:10.37,2013-05-17 09:29:00,
2013-05-17 05:34:00,39.3,38.3,29.88,NW,319,1.2,0.0,96,0.00,OVC,FEW,0.01,0.0,WeatherDisplay:10.37,2013-05-17 09:34:00,
2013-05-17 05:39:00,39.3,38.3,29.88,NNW,336,2.0,0.0,96,0.00,OVC,FEW,0.01,0.0,WeatherDisplay:10.37,2013-05-17 09:39:00,
2013-05-17 05:44:00,39.3,38.3,29.88,SSE,163,2.0,2.0,96,0.00,OVC,FEW,0.01,0.0,WeatherDisplay:10.37,2013-05-17 09:44:00,
2013-05-17 05:49:00,39.3,38.3,29.88,SE,136,2.3,2.3,96,0.00,OVC,FEW,0.01,5.0,WeatherDisplay:10.37,2013-05-17 09:49:00,
2013-05-17 05:54:00,39.4,38.4,29.88,SE,139,0.0,0.0,96,0.00,OVC,FEW,0.01,9.0,WeatherDisplay:10.37,2013-05-17 09:54:00,
2013-05-17 05:59:00,39.4,38.4,29.89,SE,139,3.5,3.5,96,0.00,OVC,FEW,0.01,21.0,WeatherDisplay:10.37,2013-05-17 09:59:00,
2013-05-17 06:04:00,39.5,38.5,29.89,SE,132,1.2,1.2,96,0.00,OVC,FEW,0.01,26.0,WeatherDisplay:10.37,2013-05-17 10:04:00,
2013-05-17 06:09:00,39.5,38.5,29.89,ESE,115,1.0,1.0,96,0.00,OVC,FEW,0.01,16.0,WeatherDisplay:10.37,2013-05-17 10:09:00,
2013-05-17 06:14:00,39.5,38.5,29.89,NE,34,0.0,0.0,96,0.00,OVC,FEW,0.01,19.0,WeatherDisplay:10.37,2013-05-17 10:14:00,
2013-05-17 06:19:00,39.5,38.5,29.90,WSW,258,3.5,3.5,96,0.00,OVC,FEW,0.01,30.0,WeatherDisplay:10.37,2013-05-17 10:19:00,
2013-05-17 06:24:00,39.5,38.5,29.90,WNW,296,2.0,2.0,96,0.00,OVC,FEW,0.01,33.0,WeatherDisplay:10.37,2013-05-17 10:24:00,
2013-05-17 06:29:00,39.6,38.6,29.90,WNW,296,1.2,0.0,96,0.00,OVC,FEW,0.01,79.0,WeatherDisplay:10.37,2013-05-17 10:29:00,
2013-05-17 06:34:00,39.6,38.6,29.90,WNW,296,0.0,0.0,96,0.00,OVC,FEW,0.01,72.0,WeatherDisplay:10.37,2013-05-17 10:34:00,
2013-05-17 06:39:00,39.8,38.8,29.90,West,259,1.0,0.0,96,0.00,OVC,FEW,0.01,74.0,WeatherDisplay:10.37,2013-05-17 10:39:00,
2013-05-17 06:44:00,39.8,38.8,29.91,NNE,26,2.3,2.3,96,0.00,OVC,FEW,0.01,70.0,WeatherDisplay:10.37,2013-05-17 10:44:00,
2013-05-17 06:49:00,39.9,38.9,29.91,NNW,333,4.0,4.0,96,0.00,OVC,FEW,0.01,35.0,WeatherDisplay:10.37,2013-05-17 10:49:00,
2013-05-17 06:54:00,39.7,38.4,29.91,NW,311,2.3,2.3,95,0.00,OVC,FEW,0.01,30.0,WeatherDisplay:10.37,2013-05-17 10:54:00,
2013-05-17 06:59:00,39.8,38.5,29.92,WNW,282,2.3,2.3,95,0.00,OVC,FEW,0.01,46.0,WeatherDisplay:10.37,2013-05-17 10:59:00,
2013-05-17 07:04:00,39.7,38.4,29.92,NW,304,2.3,2.3,95,0.00,OVC,FEW,0.01,42.0,WeatherDisplay:10.37,2013-05-17 11:04:00,
2013-05-17 07:09:00,39.6,38.3,29.92,West,278,1.2,0.0,95,0.00,OVC,FEW,0.01,32.0,WeatherDisplay:10.37,2013-05-17 11:09:00,
2013-05-17 07:14:00,39.6,38.3,29.92,West,278,1.2,0.0,95,0.00,OVC,FEW,0.01,47.0,WeatherDisplay:10.37,2013-05-17 11:14:00,
2013-05-17 07:19:00,39.6,38.3,29.92,NNW,342,2.3,2.3,95,0.00,OVC,FEW,0.01,46.0,WeatherDisplay:10.37,2013-05-17 11:19:00,
2013-05-17 07:24:00,39.6,38.6,29.93,NW,304,3.0,3.0,96,0.00,OVC,FEW,0.01,65.0,WeatherDisplay:10.37,2013-05-17 11:24:00,
2013-05-17 07:29:00,39.5,38.2,29.93,NE,38,3.5,3.5,95,0.01,RA,FEW,0.02,77.0,WeatherDisplay:10.37,2013-05-17 11:29:00,
2013-05-17 07:34:00,39.5,38.2,29.93,North,5,6.9,6.9,95,0.01,-RA,FEW,0.02,93.0,WeatherDisplay:10.37,2013-05-17 11:34:00,
2013-05-17 07:39:00,39.5,38.2,29.93,NNW,329,3.5,0.0,95,0.01,-RA,FEW,0.02,100.0,WeatherDisplay:10.37,2013-05-17 11:39:00,
2013-05-17 07:44:00,39.5,38.2,29.94,NNW,342,1.2,1.2,95,0.01,-RA,FEW,0.02,132.0,WeatherDisplay:10.37,2013-05-17 11:44:00,
2013-05-17 07:49:00,39.7,38.7,29.94,SW,235,3.0,3.0,96,0.01,-RA,FEW,0.02,132.0,WeatherDisplay:10.37,2013-05-17 11:49:00,
2013-05-17 07:54:00,39.8,38.8,29.95,NE,36,3.0,3.0,96,0.01,-RA,FEW,0.02,153.0,WeatherDisplay:10.37,2013-05-17 11:54:00,
2013-05-17 07:59:00,39.8,38.8,29.96,NNW,327,1.2,1.2,96,0.01,-RA,FEW,0.02,90.0,WeatherDisplay:10.37,2013-05-17 11:59:00,
2013-05-17 08:04:00,39.8,38.8,29.96,NNW,339,0.0,0.0,96,0.01,OVC,FEW,0.02,107.0,WeatherDisplay:10.37,2013-05-17 12:04:00,
2013-05-17 08:09:00,39.8,38.5,29.97,North,350,1.2,1.2,95,0.01,OVC,FEW,0.02,100.0,WeatherDisplay:10.37,2013-05-17 12:09:00,
2013-05-17 08:14:00,39.7,38.4,29.97,North,355,5.0,5.0,95,0.01,OVC,FEW,0.02,118.0,WeatherDisplay:10.37,2013-05-17 12:14:00,
2013-05-17 08:19:00,39.6,38.3,29.97,North,5,1.2,1.2,95,0.01,OVC,FEW,0.02,144.0,WeatherDisplay:10.37,2013-05-17 12:19:00,
2013-05-17 08:24:00,39.6,38.3,29.98,NE,36,1.2,1.2,95,0.01,OVC,FEW,0.02,179.0,WeatherDisplay:10.37,2013-05-17 12:24:00,
2013-05-17 08:29:00,39.7,38.4,29.98,North,355,2.0,2.0,95,0.00,OVC,FEW,0.02,200.0,WeatherDisplay:10.37,2013-05-17 12:29:00,
2013-05-17 08:34:00,39.8,38.5,29.98,NE,49,3.0,3.0,95,0.00,OVC,FEW,0.02,204.0,WeatherDisplay:10.37,2013-05-17 12:34:00,
2013-05-17 08:39:00,40.0,38.7,29.98,North,5,4.0,4.0,95,0.00,OVC,FEW,0.02,306.0,WeatherDisplay:10.37,2013-05-17 12:39:00,
2013-05-17 08:44:00,40.2,38.9,29.98,NNW,337,4.0,4.0,95,0.00,OVC,FEW,0.02,220.0,WeatherDisplay:10.37,2013-05-17 12:44:00,
2013-05-17 08:49:00,40.4,38.8,29.99,North,9,5.0,5.0,94,0.00,OVC,FEW,0.02,216.0,WeatherDisplay:10.37,2013-05-17 12:49:00,
2013-05-17 08:54:00,40.3,38.4,29.99,NNW,348,3.5,3.5,93,0.00,OVC,FEW,0.02,251.0,WeatherDisplay:10.37,2013-05-17 12:54:00,
2013-05-17 08:59:00,40.5,38.9,29.99,SW,223,1.2,0.0,94,0.00,OVC,FEW,0.02,332.0,WeatherDisplay:10.37,2013-05-17 12:59:00,
2013-05-17 09:04:00,40.6,38.7,29.99,North,349,4.0,4.0,93,0.00,OVC,FEW,0.02,251.0,WeatherDisplay:10.37,2013-05-17 13:04:00,
2013-05-17 09:09:00,40.7,38.8,29.99,ENE,58,10.4,10.4,93,0.00,OVC,FEW,0.02,348.0,WeatherDisplay:10.37,2013-05-17 13:09:00,
2013-05-17 09:14:00,41.0,39.1,30.00,WNW,284,5.0,5.0,93,0.00,OVC,FEW,0.02,276.0,WeatherDisplay:10.37,2013-05-17 13:14:00,
2013-05-17 09:19:00,41.2,39.3,30.00,WSW,246,3.5,3.5,93,0.00,OVC,FEW,0.02,290.0,WeatherDisplay:10.37,2013-05-17 13:19:00,
2013-05-17 09:24:00,41.5,39.6,30.00,WNW,290,1.2,1.2,93,0.00,OVC,FEW,0.02,306.0,WeatherDisplay:10.37,2013-05-17 13:24:00,
2013-05-17 09:29:00,42.1,40.2,30.00,NNE,21,3.5,3.5,93,0.00,OVC,FEW,0.02,376.0,WeatherDisplay:10.37,2013-05-17 13:29:00,
2013-05-17 09:34:00,42.3,39.9,30.00,North,360,10.4,10.4,91,0.00,OVC,FEW,0.02,322.0,WeatherDisplay:10.37,2013-05-17 13:34:00,
2013-05-17 09:39:00,42.2,39.8,30.01,North,360,9.2,9.2,91,0.00,OVC,FEW,0.02,364.0,WeatherDisplay:10.37,2013-05-17 13:39:00,
2013-05-17 09:44:00,42.4,39.7,30.01,North,360,7.0,7.0,90,0.00,OVC,FEW,0.02,343.0,WeatherDisplay:10.37,2013-05-17 13:44:00,
2013-05-17 09:49:00,42.6,39.6,30.01,North,355,11.0,11.0,89,0.00,OVC,FEW,0.02,605.0,WeatherDisplay:10.37,2013-05-17 13:49:00,
2013-05-17 09:54:00,42.9,39.3,30.02,North,355,7.0,7.0,87,0.00,OVC,FEW,0.02,239.0,WeatherDisplay:10.37,2013-05-17 13:54:00,
2013-05-17 09:59:00,42.9,39.6,30.02,NNE,24,1.2,0.0,88,0.00,OVC,FEW,0.02,424.0,WeatherDisplay:10.37,2013-05-17 13:59:00,
2013-05-17 10:04:00,43.2,39.3,30.02,NE,42,2.0,2.0,86,0.00,-RA,FEW,0.02,381.0,WeatherDisplay:10.37,2013-05-17 14:04:00,
2013-05-17 10:09:00,43.6,39.4,30.02,SE,132,3.5,3.5,85,0.00,-RA,FEW,0.02,385.0,WeatherDisplay:10.37,2013-05-17 14:09:00,
2013-05-17 10:14:00,43.6,39.4,30.03,NNW,330,6.0,6.0,85,0.00,-RA,FEW,0.02,230.0,WeatherDisplay:10.37,2013-05-17 14:14:00,
2013-05-17 10:19:00,43.4,38.9,30.03,NNW,342,3.5,3.5,84,0.00,-RA,FEW,0.02,279.0,WeatherDisplay:10.37,2013-05-17 14:19:00,
2013-05-17 10:24:00,43.2,39.0,30.03,WNW,293,5.0,5.0,85,0.00,-RA,FEW,0.02,374.0,WeatherDisplay:10.37,2013-05-17 14:24:00,
2013-05-17 10:29:00,44.0,39.5,30.03,ESE,117,9.2,9.2,84,0.00,-RA,FEW,0.02,944.0,WeatherDisplay:10.37,2013-05-17 14:29:00,
2013-05-17 10:34:00,44.8,40.0,30.03,SE,136,3.0,3.0,83,0.00,-RA,FEW,0.02,858.0,WeatherDisplay:10.37,2013-05-17 14:34:00,
2013-05-17 10:39:00,45.9,40.1,30.03,SSE,167,3.5,3.5,80,0.00,-RA,FEW,0.02,991.0,WeatherDisplay:10.37,2013-05-17 14:39:00,
2013-05-17 10:44:00,46.2,38.4,30.04,ENE,78,6.0,6.0,74,0.00,-RA,FEW,0.02,1004.0,WeatherDisplay:10.37,2013-05-17 14:44:00,
2013-05-17 10:49:00,46.3,38.1,30.04,NW,320,9.0,9.0,73,0.00,OVC,FEW,0.02,290.0,WeatherDisplay:10.37,2013-05-17 14:49:00,
2013-05-17 10:54:00,46.1,38.3,30.04,SSW,201,3.5,3.5,74,0.00,OVC,FEW,0.02,445.0,WeatherDisplay:10.37,2013-05-17 14:54:00,
2013-05-17 10:59:00,46.5,38.7,30.04,WNW,282,6.0,6.0,74,0.00,OVC,FEW,0.02,1230.0,WeatherDisplay:10.37,2013-05-17 14:59:00,
2013-05-17 11:04:00,46.8,38.2,30.04,WSW,252,1.2,1.2,72,0.00,OVC,FEW,0.02,1192.0,WeatherDisplay:10.37,2013-05-17 15:04:00,
2013-05-17 11:09:00,47.2,39.0,30.04,North,360,5.0,5.0,73,0.00,OVC,FEW,0.02,230.0,WeatherDisplay:10.37,2013-05-17 15:09:00,
2013-05-17 11:14:00,47.5,37.5,30.04,SW,225,5.8,5.8,68,0.00,OVC,FEW,0.02,1081.0,WeatherDisplay:10.37,2013-05-17 15:14:00,
2013-05-17 11:19:00,48.1,38.8,30.04,NNW,348,7.0,7.0,70,0.00,OVC,FEW,0.02,1114.0,WeatherDisplay:10.37,2013-05-17 15:19:00,
2013-05-17 11:24:00,48.2,38.5,30.04,North,351,3.5,3.5,69,0.00,OVC,FEW,0.02,1042.0,WeatherDisplay:10.37,2013-05-17 15:24:00,
2013-05-17 11:29:00,48.7,37.8,30.04,WNW,300,6.0,6.0,66,0.00,OVC,FEW,0.02,1143.0,WeatherDisplay:10.37,2013-05-17 15:29:00,
2013-05-17 11:34:00,49.4,38.5,30.04,NNW,347,3.5,3.5,66,0.00,OVC,FEW,0.02,1118.0,WeatherDisplay:10.37,2013-05-17 15:34:00,
2013-05-17 11:39:00,49.8,37.3,30.04,NE,40,6.0,6.0,62,0.00,OVC,FEW,0.02,1220.0,WeatherDisplay:10.37,2013-05-17 15:39:00,
2013-05-17 11:44:00,49.9,37.8,30.04,West,281,6.0,6.0,63,0.00,OVC,FEW,0.02,274.0,WeatherDisplay:10.37,2013-05-17 15:44:00,
2013-05-17 11:49:00,49.3,38.0,30.05,NW,320,5.0,5.0,65,0.00,OVC,FEW,0.02,1169.0,WeatherDisplay:10.37,2013-05-17 15:49:00,
2013-05-17 11:54:00,49.3,37.6,30.04,West,266,5.0,5.0,64,0.00,OVC,FEW,0.02,1320.0,WeatherDisplay:10.37,2013-05-17 15:54:00,
2013-05-17 11:59:00,49.5,37.8,30.04,WNW,302,4.0,4.0,64,0.00,OVC,FEW,0.02,322.0,WeatherDisplay:10.37,2013-05-17 15:59:00,
2013-05-17 12:04:00,50.0,39.1,30.05,North,5,5.0,5.0,66,0.00,OVC,FEW,0.02,367.0,WeatherDisplay:10.37,2013-05-17 16:04:00,
2013-05-17 12:09:00,50.7,37.3,30.04,NNE,22,3.5,3.5,60,0.00,OVC,FEW,0.02,288.0,WeatherDisplay:10.37,2013-05-17 16:09:00,
2013-05-17 12:14:00,50.7,38.6,30.05,SSE,162,2.3,2.3,63,0.00,OVC,FEW,0.02,214.0,WeatherDisplay:10.37,2013-05-17 16:14:00,
2013-05-17 12:19:00,50.5,38.4,30.05,NNE,16,4.0,4.0,63,0.00,OVC,FEW,0.02,253.0,WeatherDisplay:10.37,2013-05-17 16:19:00,
2013-05-17 12:24:00,50.2,38.9,30.05,North,355,2.3,2.3,65,0.00,OVC,FEW,0.02,1246.0,WeatherDisplay:10.37,2013-05-17 16:24:00,
2013-05-17 12:29:00,50.9,39.9,30.04,WSW,248,4.0,4.0,66,0.00,OVC,FEW,0.02,1376.0,WeatherDisplay:10.37,2013-05-17 16:29:00,
2013-05-17 12:34:00,52.2,39.6,30.05,NNE,18,9.2,9.2,62,0.00,OVC,FEW,0.02,520.0,WeatherDisplay:10.37,2013-05-17 16:34:00,
2013-05-17 12:39:00,52.5,39.4,30.05,NNW,336,4.6,4.6,61,0.00,OVC,FEW,0.02,392.0,WeatherDisplay:10.37,2013-05-17 16:39:00,
2013-05-17 12:44:00,51.5,37.2,30.05,West,266,11.5,11.5,58,0.00,OVC,FEW,0.02,383.0,WeatherDisplay:10.37,2013-05-17 16:44:00,
2013-05-17 12:49:00,51.4,38.0,30.05,SE,126,3.5,3.5,60,0.00,OVC,FEW,0.02,1209.0,WeatherDisplay:10.37,2013-05-17 16:49:00,
2013-05-17 12:54:00,52.1,38.6,30.05,NE,46,9.0,9.0,60,0.00,OVC,FEW,0.02,1318.0,WeatherDisplay:10.37,2013-05-17 16:54:00,
2013-05-17 12:59:00,52.6,38.7,30.05,WSW,244,4.6,4.6,59,0.00,OVC,FEW,0.02,374.0,WeatherDisplay:10.37,2013-05-17 16:59:00,
2013-05-17 13:04:00,52.0,37.7,30.06,SE,130,6.9,6.9,58,0.00,SCT,FEW,0.02,334.0,WeatherDisplay:10.37,2013-05-17 17:04:00,
2013-05-17 13:09:00,51.3,38.7,30.05,NNE,26,2.3,2.3,62,0.00,SCT,FEW,0.02,308.0,WeatherDisplay:10.37,2013-05-17 17:09:00,
2013-05-17 13:14:00,51.1,37.7,30.06,NNE,18,3.5,3.5,60,0.00,SCT,FEW,0.02,429.0,WeatherDisplay:10.37,2013-05-17 17:14:00,
2013-05-17 13:19:00,51.0,37.2,30.05,West,261,4.0,4.0,59,0.00,SCT,FEW,0.02,478.0,WeatherDisplay:10.37,2013-05-17 17:19:00,
2013-05-17 13:24:00,51.1,37.7,30.05,WNW,296,4.0,4.0,60,0.00,SCT,FEW,0.02,432.0,WeatherDisplay:10.37,2013-05-17 17:24:00,
2013-05-17 13:29:00,51.1,37.3,30.05,North,355,4.0,4.0,59,0.00,SCT,FEW,0.02,374.0,WeatherDisplay:10.37,2013-05-17 17:29:00,
2013-05-17 13:34:00,51.1,36.8,30.05,WNW,302,4.0,4.0,58,0.00,SCT,FEW,0.02,318.0,WeatherDisplay:10.37,2013-05-17 17:34:00,
2013-05-17 13:39:00,51.1,38.1,30.06,NNW,331,8.0,8.0,61,0.00,SCT,FEW,0.02,378.0,WeatherDisplay:10.37,2013-05-17 17:39:00,
2013-05-17 13:44:00,51.2,38.6,30.06,WNW,285,3.5,3.5,62,0.00,SCT,FEW,0.02,374.0,WeatherDisplay:10.37,2013-05-17 17:44:00,
2013-05-17 13:49:00,51.4,38.4,30.06,East,96,2.3,2.3,61,0.00,SCT,FEW,0.02,274.0,WeatherDisplay:10.37,2013-05-17 17:49:00,
2013-05-17 13:54:00,51.3,37.9,30.06,North,360,3.5,3.5,60,0.00,SCT,FEW,0.02,371.0,WeatherDisplay:10.37,2013-05-17 17:54:00,
2013-05-17 13:59:00,51.3,37.9,30.06,NNW,333,6.0,6.0,60,0.00,SCT,FEW,0.02,253.0,WeatherDisplay:10.37,2013-05-17 17:59:00,
2013-05-17 14:04:00,51.4,38.8,30.06,WSW,256,4.0,4.0,62,0.00,OVC,FEW,0.02,315.0,WeatherDisplay:10.37,2013-05-17 18:04:00,
2013-05-17 14:09:00,51.2,38.2,30.06,NW,305,3.5,3.5,61,0.00,OVC,FEW,0.02,255.0,WeatherDisplay:10.37,2013-05-17 18:09:00,
2013-05-17 14:14:00,51.0,38.4,30.06,NE,49,8.1,8.1,62,0.00,OVC,FEW,0.02,329.0,WeatherDisplay:10.37,2013-05-17 18:14:00,
2013-05-17 14:19:00,51.0,38.4,30.06,North,360,7.0,7.0,62,0.00,OVC,FEW,0.02,338.0,WeatherDisplay:10.37,2013-05-17 18:19:00,
2013-05-17 14:24:00,51.1,37.7,30.06,North,355,7.0,7.0,60,0.00,OVC,FEW,0.02,1083.0,WeatherDisplay:10.37,2013-05-17 18:24:00,
2013-05-17 14:29:00,52.0,38.1,30.06,NE,38,4.0,4.0,59,0.00,OVC,FEW,0.02,1150.0,WeatherDisplay:10.37,2013-05-17 18:29:00,
2013-05-17 14:34:00,52.8,38.4,30.06,NNW,328,7.0,7.0,58,0.00,OVC,FEW,0.02,272.0,WeatherDisplay:10.37,2013-05-17 18:34:00,
2013-05-17 14:39:00,53.0,37.3,30.06,NNE,22,10.4,10.4,55,0.00,OVC,FEW,0.02,336.0,WeatherDisplay:10.37,2013-05-17 18:39:00,
2013-05-17 14:44:00,53.6,38.3,30.06,SW,215,5.0,5.0,56,0.00,OVC,FEW,0.02,1055.0,WeatherDisplay:10.37,2013-05-17 18:44:00,
2013-05-17 14:49:00,54.3,38.9,30.06,SW,233,5.8,5.8,56,0.00,OVC,FEW,0.02,1078.0,WeatherDisplay:10.37,2013-05-17 18:49:00,
2013-05-17 14:54:00,55.0,39.1,30.06,SE,139,5.8,5.8,55,0.00,OVC,FEW,0.02,1192.0,WeatherDisplay:10.37,2013-05-17 18:54:00,
2013-05-17 14:59:00,54.9,38.1,30.07,NNE,19,3.0,3.0,53,0.00,OVC,FEW,0.02,278.0,WeatherDisplay:10.37,2013-05-17 18:59:00,
2013-05-17 15:04:00,54.2,37.4,30.06,SW,217,5.0,5.0,53,0.00,OVC,FEW,0.02,294.0,WeatherDisplay:10.37,2013-05-17 19:04:00,
2013-05-17 15:09:00,53.9,37.6,30.07,West,264,10.4,10.4,54,0.00,OVC,FEW,0.02,308.0,WeatherDisplay:10.37,2013-05-17 19:09:00,
2013-05-17 15:14:00,53.8,37.5,30.06,NE,34,3.5,3.5,54,0.00,OVC,FEW,0.02,281.0,WeatherDisplay:10.37,2013-05-17 19:14:00,
2013-05-17 15:19:00,53.5,37.3,30.06,NNW,332,3.5,3.5,54,0.00,OVC,FEW,0.02,272.0,WeatherDisplay:10.37,2013-05-17 19:19:00,
2013-05-17 15:24:00,53.1,36.9,30.07,NW,317,6.0,6.0,54,0.00,OVC,FEW,0.02,320.0,WeatherDisplay:10.37,2013-05-17 19:24:00,
2013-05-17 15:29:00,53.0,37.3,30.07,WSW,243,3.5,3.5,55,0.00,OVC,FEW,0.02,1055.0,WeatherDisplay:10.37,2013-05-17 19:29:00,
2013-05-17 15:34:00,53.7,37.0,30.07,NNW,342,4.0,4.0,53,0.00,OVC,FEW,0.02,958.0,WeatherDisplay:10.37,2013-05-17 19:34:00,
2013-05-17 15:39:00,53.9,36.2,30.07,NW,323,7.0,7.0,51,0.00,OVC,FEW,0.02,295.0,WeatherDisplay:10.37,2013-05-17 19:39:00,
2013-05-17 15:44:00,53.5,36.8,30.07,North,350,14.0,14.0,53,0.00,OVC,FEW,0.02,408.0,WeatherDisplay:10.37,2013-05-17 19:44:00,
2013-05-17 15:49:00,53.4,36.7,30.07,NNW,336,11.5,11.5,53,0.00,OVC,FEW,0.02,250.0,WeatherDisplay:10.37,2013-05-17 19:49:00,
2013-05-17 15:54:00,53.3,36.6,30.07,NNE,18,6.0,6.0,53,0.00,OVC,FEW,0.02,190.0,WeatherDisplay:10.37,2013-05-17 19:54:00,
2013-05-17 15:59:00,53.0,35.8,30.07,NE,53,9.0,9.0,52,0.00,OVC,FEW,0.02,188.0,WeatherDisplay:10.37,2013-05-17 19:59:00,
2013-05-17 16:04:00,52.8,36.6,30.07,NNE,14,3.5,3.5,54,0.00,OVC,FEW,0.02,204.0,WeatherDisplay:10.37,2013-05-17 20:04:00,
2013-05-17 16:09:00,52.7,37.0,30.07,ENE,75,3.5,3.5,55,0.00,OVC,FEW,0.02,223.0,WeatherDisplay:10.37,2013-05-17 20:09:00,
2013-05-17 16:14:00,52.7,37.0,30.08,ENE,67,4.6,4.6,55,0.00,OVC,FEW,0.02,206.0,WeatherDisplay:10.37,2013-05-17 20:14:00,
2013-05-17 16:19:00,52.7,37.0,30.08,North,5,5.0,5.0,55,0.00,OVC,FEW,0.02,192.0,WeatherDisplay:10.37,2013-05-17 20:19:00,
2013-05-17 16:24:00,52.7,37.0,30.08,NNE,17,4.6,4.6,55,0.00,OVC,FEW,0.02,97.0,WeatherDisplay:10.37,2013-05-17 20:24:00,
2013-05-17 16:29:00,52.3,36.6,30.09,North,11,4.0,4.0,55,0.00,OVC,FEW,0.02,100.0,WeatherDisplay:10.37,2013-05-17 20:29:00,
2013-05-17 16:34:00,52.1,37.3,30.09,North,5,5.0,5.0,57,0.00,OVC,FEW,0.02,355.0,WeatherDisplay:10.37,2013-05-17 20:34:00,
2013-05-17 16:39:00,52.1,36.4,30.09,NW,320,5.0,5.0,55,0.00,OVC,FEW,0.02,220.0,WeatherDisplay:10.37,2013-05-17 20:39:00,
2013-05-17 16:44:00,52.5,37.2,30.09,ENE,57,4.0,4.0,56,0.00,OVC,FEW,0.02,371.0,WeatherDisplay:10.37,2013-05-17 20:44:00,
2013-05-17 16:49:00,52.9,37.2,30.09,NW,313,9.0,9.0,55,0.00,OVC,FEW,0.02,390.0,WeatherDisplay:10.37,2013-05-17 20:49:00,
2013-05-17 16:54:00,53.0,36.8,30.09,West,277,4.6,4.6,54,0.00,OVC,FEW,0.02,297.0,WeatherDisplay:10.37,2013-05-17 20:54:00,
2013-05-17 16:59:00,53.0,37.3,30.09,NNE,32,6.0,6.0,55,0.00,OVC,FEW,0.02,302.0,WeatherDisplay:10.37,2013-05-17 20:59:00,
2013-05-17 17:04:00,53.1,38.3,30.09,West,267,3.5,3.5,57,0.00,OVC,FEW,0.02,237.0,WeatherDisplay:10.37,2013-05-17 21:04:00,
2013-05-17 17:09:00,53.6,37.8,30.10,NNE,28,5.8,5.8,55,0.00,OVC,FEW,0.02,163.0,WeatherDisplay:10.37,2013-05-17 21:09:00,
2013-05-17 17:14:00,53.7,38.8,30.09,South,190,5.0,5.0,57,0.00,OVC,FEW,0.02,153.0,WeatherDisplay:10.37,2013-05-17 21:14:00,
2013-05-17 17:19:00,53.6,39.2,30.10,NW,312,4.0,4.0,58,0.00,OVC,FEW,0.02,269.0,WeatherDisplay:10.37,2013-05-17 21:19:00,
2013-05-17 17:24:00,52.9,39.8,30.10,ESE,107,1.2,1.2,61,0.00,OVC,FEW,0.02,206.0,WeatherDisplay:10.37,2013-05-17 21:24:00,
2013-05-17 17:29:00,52.3,38.8,30.10,NNE,24,5.8,5.8,60,0.00,OVC,FEW,0.02,162.0,WeatherDisplay:10.37,2013-05-17 21:29:00,
2013-05-17 17:34:00,51.8,40.0,30.10,NE,48,1.2,0.0,64,0.00,OVC,FEW,0.02,206.0,WeatherDisplay:10.37,2013-05-17 21:34:00,
2013-05-17 17:39:00,51.6,39.8,30.10,East,94,1.2,1.2,64,0.00,OVC,FEW,0.02,200.0,WeatherDisplay:10.37,2013-05-17 21:39:00,
2013-05-17 17:44:00,51.8,38.8,30.10,NW,317,6.0,6.0,61,0.00,OVC,FEW,0.02,248.0,WeatherDisplay:10.37,2013-05-17 21:44:00,
2013-05-17 17:49:00,52.0,39.4,30.10,East,99,4.0,4.0,62,0.00,OVC,FEW,0.02,200.0,WeatherDisplay:10.37,2013-05-17 21:49:00,
2013-05-17 17:54:00,52.5,39.0,30.10,ENE,78,5.0,5.0,60,0.00,OVC,FEW,0.02,76.0,WeatherDisplay:10.37,2013-05-17 21:54:00,
2013-05-17 17:59:00,52.4,38.9,30.10,ENE,59,5.0,5.0,60,0.00,OVC,FEW,0.02,39.0,WeatherDisplay:10.37,2013-05-17 21:59:00,
2013-05-17 18:04:00,51.9,40.1,30.11,NE,42,3.5,0.0,64,0.00,OVC,FEW,0.02,42.0,WeatherDisplay:10.37,2013-05-17 22:04:00,
2013-05-17 18:09:00,51.5,39.7,30.11,ENE,61,1.2,0.0,64,0.00,OVC,FEW,0.02,33.0,WeatherDisplay:10.37,2013-05-17 22:09:00,
2013-05-17 18:14:00,51.1,40.1,30.12,East,90,0.0,0.0,66,0.00,OVC,FEW,0.02,32.0,WeatherDisplay:10.37,2013-05-17 22:14:00,
2013-05-17 18:19:00,50.7,40.1,30.12,NNE,28,4.0,4.0,67,0.00,OVC,FEW,0.02,46.0,WeatherDisplay:10.37,2013-05-17 22:19:00,
2013-05-17 18:24:00,50.4,41.0,30.12,NE,34,0.0,0.0,70,0.00,OVC,FEW,0.02,111.0,WeatherDisplay:10.37,2013-05-17 22:24:00,
2013-05-17 18:29:00,50.1,40.7,30.12,East,80,0.0,0.0,70,0.00,OVC,FEW,0.02,104.0,WeatherDisplay:10.37,2013-05-17 22:29:00,
2013-05-17 18:34:00,49.9,40.9,30.12,East,80,0.0,0.0,71,0.00,OVC,FEW,0.02,67.0,WeatherDisplay:10.37,2013-05-17 22:34:00,
2013-05-17 18:39:00,49.8,40.0,30.12,East,80,0.0,0.0,69,0.00,OVC,FEW,0.02,62.0,WeatherDisplay:10.37,2013-05-17 22:39:00,
2013-05-17 18:44:00,49.6,40.9,30.12,East,80,0.0,0.0,72,0.00,OVC,FEW,0.02,53.0,WeatherDisplay:10.37,2013-05-17 22:44:00,
2013-05-17 18:49:00,49.5,40.1,30.12,East,80,0.0,0.0,70,0.00,OVC,FEW,0.02,67.0,WeatherDisplay:10.37,2013-05-17 22:49:00,
2013-05-17 18:54:00,49.3,40.3,30.12,East,80,1.2,0.0,71,0.00,OVC,FEW,0.02,69.0,WeatherDisplay:10.37,2013-05-17 22:54:00,
2013-05-17 18:59:00,49.4,40.4,30.12,East,80,1.2,0.0,71,0.00,OVC,FEW,0.02,69.0,WeatherDisplay:10.37,2013-05-17 22:59:00,
2013-05-17 19:04:00,49.4,39.7,30.13,ENE,61,1.2,0.0,69,0.00,OVC,FEW,0.02,58.0,WeatherDisplay:10.37,2013-05-17 23:04:00,
2013-05-17 19:09:00,49.5,40.5,30.13,ENE,60,0.0,0.0,71,0.00,OVC,FEW,0.02,44.0,WeatherDisplay:10.37,2013-05-17 23:09:00,
2013-05-17 19:14:00,49.5,40.1,30.13,ENE,60,0.0,0.0,70,0.00,OVC,FEW,0.02,37.0,WeatherDisplay:10.37,2013-05-17 23:14:00,
2013-05-17 19:19:00,49.4,40.0,30.13,ENE,59,3.0,3.0,70,0.00,OVC,FEW,0.02,37.0,WeatherDisplay:10.37,2013-05-17 23:19:00,
2013-05-17 19:24:00,49.1,39.4,30.13,West,269,1.2,0.0,69,0.00,OVC,FEW,0.02,39.0,WeatherDisplay:10.37,2013-05-17 23:24:00,
2013-05-17 19:29:00,49.0,38.9,30.13,West,269,0.0,0.0,68,0.00,OVC,FEW,0.02,32.0,WeatherDisplay:10.37,2013-05-17 23:29:00,
2013-05-17 19:34:00,49.0,38.9,30.13,NNE,15,1.2,1.2,68,0.00,OVC,FEW,0.02,30.0,WeatherDisplay:10.37,2013-05-17 23:34:00,
2013-05-17 19:39:00,48.9,38.4,30.13,NE,35,4.0,4.0,67,0.00,OVC,FEW,0.02,25.0,WeatherDisplay:10.37,2013-05-17 23:39:00,
2013-05-17 19:44:00,48.9,38.8,30.13,NE,35,0.0,0.0,68,0.00,OVC,FEW,0.02,19.0,WeatherDisplay:10.37,2013-05-17 23:44:00,
2013-05-17 19:49:00,48.8,39.1,30.14,NE,35,0.0,0.0,69,0.00,OVC,FEW,0.02,11.0,WeatherDisplay:10.37,2013-05-17 23:49:00,
2013-05-17 19:54:00,48.6,38.5,30.14,NE,35,0.0,0.0,68,0.00,OVC,FEW,0.02,9.0,WeatherDisplay:10.37,2013-05-17 23:54:00,
2013-05-17 19:59:00,48.3,38.2,30.14,NE,35,0.0,0.0,68,0.00,OVC,FEW,0.02,7.0,WeatherDisplay:10.37,2013-05-17 23:59:00,
2013-05-17 20:04:00,48.0,38.3,30.14,NE,35,0.0,0.0,69,0.00,BKN,FEW,0.02,5.0,WeatherDisplay:10.37,2013-05-18 00:04:00,
2013-05-17 20:09:00,47.7,38.0,30.14,NE,35,0.0,0.0,69,0.00,BKN,FEW,0.02,0.0,WeatherDisplay:10.37,2013-05-18 00:09:00,
2013-05-17 20:14:00,47.4,38.1,30.14,NE,35,0.0,0.0,70,0.00,BKN,FEW,0.02,0.0,WeatherDisplay:10.37,2013-05-18 00:14:00,
2013-05-17 20:19:00,47.1,37.8,30.14,NE,35,0.0,0.0,70,0.00,BKN,FEW,0.02,0.0,WeatherDisplay:10.37,2013-05-18 00:19:00,
2013-05-17 20:24:00,46.9,37.6,30.14,NE,35,0.0,0.0,70,0.00,BKN,FEW,0.02,0.0,WeatherDisplay:10.37,2013-05-18 00:24:00,
2013-05-17 20:29:00,46.7,37.8,30.15,NE,35,0.0,0.0,71,0.00,BKN,FEW,0.02,0.0,WeatherDisplay:10.37,2013-05-18 00:29:00,
2013-05-17 20:34:00,46.4,37.9,30.15,NE,35,0.0,0.0,72,0.00,BKN,FEW,0.02,0.0,WeatherDisplay:10.37,2013-05-18 00:34:00,
2013-05-17 20:39:00,46.3,37.8,30.15,NE,35,1.0,0.0,72,0.00,BKN,FEW,0.02,0.0,WeatherDisplay:10.37,2013-05-18 00:39:00,
2013-05-17 20:44:00,46.0,37.8,30.15,NE,35,0.0,0.0,73,0.00,BKN,FEW,0.02,0.0,WeatherDisplay:10.37,2013-05-18 00:44:00,
2013-05-17 20:49:00,45.9,37.7,30.15,NE,35,0.0,0.0,73,0.00,BKN,FEW,0.02,0.0,WeatherDisplay:10.37,2013-05-18 00:49:00,
2013-05-17 20:54:00,45.5,37.7,30.16,NE,35,1.2,0.0,74,0.00,BKN,FEW,0.02,0.0,WeatherDisplay:10.37,2013-05-18 00:54:00,
2013-05-17 20:59:00,45.0,37.6,30.16,NE,35,0.0,0.0,75,0.00,BKN,FEW,0.02,0.0,WeatherDisplay:10.37,2013-05-18 00:59:00,
2013-05-17 21:04:00,44.8,37.4,30.16,NE,35,0.0,0.0,75,0.00,BKN,FEW,0.02,0.0,WeatherDisplay:10.37,2013-05-18 01:04:00,
2013-05-17 21:09:00,44.5,37.4,30.17,NE,35,0.0,0.0,76,0.00,BKN,FEW,0.02,0.0,WeatherDisplay:10.37,2013-05-18 01:09:00,
2013-05-17 21:14:00,44.5,37.4,30.17,NE,35,0.0,0.0,76,0.00,BKN,FEW,0.02,0.0,WeatherDisplay:10.37,2013-05-18 01:14:00,
2013-05-17 21:19:00,44.4,37.3,30.17,NE,35,0.0,0.0,76,0.00,BKN,FEW,0.02,0.0,WeatherDisplay:10.37,2013-05-18 01:19:00,
2013-05-17 21:24:00,44.2,37.4,30.17,NE,35,0.0,0.0,77,0.00,BKN,FEW,0.02,0.0,WeatherDisplay:10.37,2013-05-18 01:24:00,
2013-05-17 21:29:00,44.1,37.3,30.17,NE,35,0.0,0.0,77,0.00,BKN,FEW,0.02,0.0,WeatherDisplay:10.37,2013-05-18 01:29:00,
2013-05-17 21:34:00,44.0,37.3,30.17,NE,35,0.0,0.0,77,0.00,BKN,FEW,0.02,0.0,WeatherDisplay:10.37,2013-05-18 01:34:00,
2013-05-17 21:39:00,44.0,37.6,30.18,NE,35,0.0,0.0,78,0.00,BKN,FEW,0.02,0.0,WeatherDisplay:10.37,2013-05-18 01:39:00,
2013-05-17 21:44:00,43.8,37.7,30.17,NE,35,0.0,0.0,79,0.00,BKN,FEW,0.02,0.0,WeatherDisplay:10.37,2013-05-18 01:44:00,
2013-05-17 21:49:00,43.7,37.6,30.17,NE,35,0.0,0.0,79,0.00,BKN,FEW,0.02,0.0,WeatherDisplay:10.37,2013-05-18 01:49:00,
2013-05-17 21:54:00,43.7,37.6,30.17,NE,35,0.0,0.0,79,0.00,BKN,FEW,0.02,0.0,WeatherDisplay:10.37,2013-05-18 01:54:00,
2013-05-17 21:59:00,43.7,37.6,30.17,NE,35,0.0,0.0,79,0.00,BKN,FEW,0.02,0.0,WeatherDisplay:10.37,2013-05-18 01:59:00,
2013-05-17 22:04:00,43.8,37.7,30.17,NE,35,0.0,0.0,79,0.00,BKN,FEW,0.02,0.0,WeatherDisplay:10.37,2013-05-18 02:04:00,
2013-05-17 22:09:00,43.8,38.0,30.17,NE,35,0.0,0.0,80,0.00,BKN,FEW,0.02,0.0,WeatherDisplay:10.37,2013-05-18 02:09:00,
2013-05-17 22:14:00,43.4,38.0,30.18,NE,35,0.0,0.0,81,0.00,BKN,FEW,0.02,0.0,WeatherDisplay:10.37,2013-05-18 02:14:00,
2013-05-17 22:19:00,43.1,38.0,30.18,NE,35,0.0,0.0,82,0.00,BKN,FEW,0.02,0.0,WeatherDisplay:10.37,2013-05-18 02:19:00,
2013-05-17 22:24:00,42.8,38.3,30.17,NE,35,0.0,0.0,84,0.00,BKN,FEW,0.02,0.0,WeatherDisplay:10.37,2013-05-18 02:24:00,
2013-05-17 22:29:00,42.5,38.3,30.18,NE,35,0.0,0.0,85,0.00,BKN,FEW,0.02,0.0,WeatherDisplay:10.37,2013-05-18 02:29:00,
2013-05-17 22:34:00,42.1,37.9,30.18,NE,35,0.0,0.0,85,0.00,BKN,FEW,0.02,0.0,WeatherDisplay:10.37,2013-05-18 02:34:00,
2013-05-17 22:39:00,41.8,38.2,30.18,NE,35,0.0,0.0,87,0.00,BKN,FEW,0.02,0.0,WeatherDisplay:10.37,2013-05-18 02:39:00,
2013-05-17 22:44:00,41.5,37.9,30.18,NE,35,0.0,0.0,87,0.00,BKN,FEW,0.02,0.0,WeatherDisplay:10.37,2013-05-18 02:44:00,
2013-05-17 22:49:00,41.2,37.6,30.19,NE,35,1.2,0.0,87,0.00,BKN,FEW,0.02,0.0,WeatherDisplay:10.37,2013-05-18 02:49:00,
2013-05-17 22:54:00,41.2,37.3,30.19,NE,35,0.0,0.0,86,0.00,BKN,FEW,0.02,0.0,WeatherDisplay:10.37,2013-05-18 02:54:00,
2013-05-17 22:59:00,41.3,37.1,30.19,NE,35,0.0,0.0,85,0.00,BKN,FEW,0.02,0.0,WeatherDisplay:10.37,2013-05-18 02:59:00,
2013-05-17 23:04:00,41.4,37.2,30.19,NE,35,0.0,0.0,85,0.00,OVC,FEW,0.02,0.0,WeatherDisplay:10.37,2013-05-18 03:04:00,
2013-05-17 23:09:00,41.4,37.2,30.19,NE,35,0.0,0.0,85,0.00,OVC,FEW,0.02,0.0,WeatherDisplay:10.37,2013-05-18 03:09:00,
2013-05-17 23:14:00,41.4,36.9,30.19,NE,35,0.0,0.0,84,0.00,OVC,FEW,0.02,0.0,WeatherDisplay:10.37,2013-05-18 03:14:00,
2013-05-17 23:19:00,41.3,36.8,30.19,NE,35,1.0,1.0,84,0.00,OVC,FEW,0.02,0.0,WeatherDisplay:10.37,2013-05-18 03:19:00,
2013-05-17 23:24:00,41.3,37.1,30.19,NE,35,0.0,0.0,85,0.00,OVC,FEW,0.02,0.0,WeatherDisplay:10.37,2013-05-18 03:24:00,
2013-05-17 23:29:00,41.1,36.9,30.19,NE,35,0.0,0.0,85,0.00,OVC,FEW,0.02,0.0,WeatherDisplay:10.37,2013-05-18 03:29:00,
2013-05-17 23:34:00,40.9,37.0,30.19,NE,35,0.0,0.0,86,0.00,OVC,FEW,0.02,0.0,WeatherDisplay:10.37,2013-05-18 03:34:00,
2013-05-17 23:39:00,40.8,37.2,30.19,NE,35,0.0,0.0,87,0.00,OVC,FEW,0.02,0.0,WeatherDisplay:10.37,2013-05-18 03:39:00,
2013-05-17 23:44:00,40.6,37.3,30.20,NE,35,0.0,0.0,88,0.00,OVC,FEW,0.02,0.0,WeatherDisplay:10.37,2013-05-18 03:44:00,
2013-05-17 23:49:00,40.4,37.1,30.19,NE,35,0.0,0.0,88,0.00,OVC,FEW,0.02,0.0,WeatherDisplay:10.37,2013-05-18 03:49:00,
2013-05-17 23:54:00,40.1,37.1,30.20,NE,35,0.0,0.0,89,0.00,OVC,FEW,0.02,0.0,WeatherDisplay:10.37,2013-05-18 03:54:00,
2013-05-17 23:59:00,39.9,37.2,30.20,NE,35,0.0,0.0,90,0.00,OVC,FEW,0.02,0.0,WeatherDisplay:10.37,2013-05-18 03:59:00,